Brisbane - nearby METAR Reports

YBBN - Brisbane Intl Ar, Australia
Distance from station: NNE 11km
Updated: 08/12/2019 11:00
Mostly cloudy
Mostly cloudy
 Wind from ESE
Wind: ESE 17 km/h
Temperature: 28°C
Heat Index: 29°C
Dew Point: 18°C
Humidity: 55%
Barometer: 1016 hPa
Clouds: Mostly cloudy
Visibility: 10 km
Cloud details: Mostly cloudy 975 m
2019/12/08 01:00 YBBN 080100Z 12009KT 9999 BKN032 28/18 Q1016
YAMB - Amberley, Australia
Distance from station: WSW 42km
Updated: 08/12/2019 11:30
Overcast
Overcast
 Wind from ENE
Wind: ENE 17 km/h
Temperature: 30°C
Heat Index: 31°C
Dew Point: 17°C
Humidity: 46%
Barometer: 1015 hPa
Clouds: Overcast
Visibility: 10 km
Cloud details: Mostly cloudy 1311 m
Overcast 1463 m
2019/12/08 01:30 YAMB 080130Z AUTO 06009KT 9999 // BKN043 OVC048 30/17 Q1015
 
YBCG - Coolangatta Aws, Australia
Distance from station: SSE 102km
Updated: 08/12/2019 11:30
Overcast
Overcast
 Wind from SSE
Wind: SSE 26 km/h
Temperature: 27°C
Heat Index: 28°C
Dew Point: 18°C
Humidity: 58%
Barometer: 1017 hPa
Clouds: Overcast
Visibility: 10 km
Cloud details: Partly cloudy 1341 m
Overcast 1615 m
2019/12/08 01:30 YBCG 080130Z AUTO 15014KT 9999 // SCT044 OVC053 27/18 Q1017

Cumulus logo AWN logo WOW logo PWS logo WU logo AWEKAS logo